sensor_id;sensor_type;location;lat;lon;timestamp;pressure;altitude;pressure_sealevel;temperature;humidity
33189;BME280;52601;53.070;10.600;2022-10-16T00:02:31;100691.56;;;14.14;100.00
33189;BME280;52601;53.070;10.600;2022-10-16T00:05:17;100701.72;;;14.06;100.00
33189;BME280;52601;53.070;10.600;2022-10-16T00:08:03;100719.44;;;14.04;100.00
33189;BME280;52601;53.070;10.600;2022-10-16T00:10:48;100703.03;;;13.99;100.00
33189;BME280;52601;53.070;10.600;2022-10-16T00:13:34;100715.84;;;14.05;100.00
33189;BME280;52601;53.070;10.600;2022-10-16T00:16:20;100711.34;;;13.93;100.00
33189;BME280;52601;53.070;10.600;2022-10-16T00:19:05;100711.97;;;13.96;100.00
33189;BME280;52601;53.070;10.600;2022-10-16T00:21:51;100715.38;;;13.98;100.00
33189;BME280;52601;53.070;10.600;2022-10-16T00:24:37;100715.31;;;14.00;100.00
33189;BME280;52601;53.070;10.600;2022-10-16T00:27:22;100707.94;;;13.91;100.00
33189;BME280;52601;53.070;10.600;2022-10-16T00:30:08;100720.84;;;13.95;100.00
33189;BME280;52601;53.070;10.600;2022-10-16T00:32:54;100713.03;;;13.94;100.00
33189;BME280;52601;53.070;10.600;2022-10-16T00:35:40;100717.34;;;13.95;100.00
33189;BME280;52601;53.070;10.600;2022-10-16T00:38:25;100713.22;;;13.91;100.00
33189;BME280;52601;53.070;10.600;2022-10-16T00:41:15;100717.84;;;13.87;100.00
33189;BME280;52601;53.070;10.600;2022-10-16T00:44:03;100721.22;;;13.89;100.00
33189;BME280;52601;53.070;10.600;2022-10-16T00:46:50;100718.59;;;13.75;100.00
33189;BME280;52601;53.070;10.600;2022-10-16T00:49:36;100726.59;;;13.88;100.00
33189;BME280;52601;53.070;10.600;2022-10-16T00:52:21;100715.09;;;13.74;100.00
33189;BME280;52601;53.070;10.600;2022-10-16T00:55:08;100714.94;;;13.77;100.00
33189;BME280;52601;53.070;10.600;2022-10-16T00:57:54;100723.84;;;13.75;100.00
33189;BME280;52601;53.070;10.600;2022-10-16T01:00:39;100729.97;;;13.75;100.00
33189;BME280;52601;53.070;10.600;2022-10-16T01:03:31;100728.84;;;13.65;100.00
33189;BME280;52601;53.070;10.600;2022-10-16T01:15:10;100744.84;;;13.76;100.00
33189;BME280;52601;53.070;10.600;2022-10-16T01:18:01;100736.47;;;13.70;100.00
33189;BME280;52601;53.070;10.600;2022-10-16T01:21:00;100739.94;;;13.70;100.00
33189;BME280;52601;53.070;10.600;2022-10-16T01:23:51;100738.63;;;13.63;100.00
33189;BME280;52601;53.070;10.600;2022-10-16T01:33:15;100744.16;;;13.59;100.00
33189;BME280;52601;53.070;10.600;2022-10-16T01:36:13;100751.41;;;13.55;100.00
33189;BME280;52601;53.070;10.600;2022-10-16T01:39:01;100754.94;;;13.40;100.00
33189;BME280;52601;53.070;10.600;2022-10-16T01:41:53;100749.00;;;13.37;100.00
33189;BME280;52601;53.070;10.600;2022-10-16T01:44:40;100746.38;;;13.37;100.00
33189;BME280;52601;53.070;10.600;2022-10-16T01:47:28;100754.88;;;13.42;100.00
33189;BME280;52601;53.070;10.600;2022-10-16T01:50:18;100737.81;;;13.33;100.00
33189;BME280;52601;53.070;10.600;2022-10-16T01:53:04;100740.25;;;13.22;100.00
33189;BME280;52601;53.070;10.600;2022-10-16T01:55:52;100755.66;;;13.14;100.00
33189;BME280;52601;53.070;10.600;2022-10-16T01:58:47;100741.44;;;13.01;100.00
33189;BME280;52601;53.070;10.600;2022-10-16T02:01:36;100741.34;;;13.02;100.00
33189;BME280;52601;53.070;10.600;2022-10-16T02:04:28;100747.56;;;13.02;100.00
33189;BME280;52601;53.070;10.600;2022-10-16T02:07:15;100743.31;;;12.99;100.00
33189;BME280;52601;53.070;10.600;2022-10-16T02:10:01;100735.72;;;12.79;100.00
33189;BME280;52601;53.070;10.600;2022-10-16T02:12:53;100747.75;;;12.83;100.00
33189;BME280;52601;53.070;10.600;2022-10-16T02:15:41;100747.44;;;12.73;100.00
33189;BME280;52601;53.070;10.600;2022-10-16T02:18:26;100758.97;;;12.71;100.00
33189;BME280;52601;53.070;10.600;2022-10-16T02:21:23;100769.50;;;12.55;100.00
33189;BME280;52601;53.070;10.600;2022-10-16T02:24:23;100760.75;;;12.55;100.00
33189;BME280;52601;53.070;10.600;2022-10-16T02:28:15;100767.41;;;12.46;100.00
33189;BME280;52601;53.070;10.600;2022-10-16T02:30:43;100769.75;;;12.51;100.00
33189;BME280;52601;53.070;10.600;2022-10-16T02:33:31;100777.41;;;12.40;100.00
33189;BME280;52601;53.070;10.600;2022-10-16T02:36:17;100768.06;;;12.34;100.00
33189;BME280;52601;53.070;10.600;2022-10-16T02:39:03;100769.75;;;12.51;100.00
33189;BME280;52601;53.070;10.600;2022-10-16T02:41:49;100765.78;;;12.44;100.00
33189;BME280;52601;53.070;10.600;2022-10-16T02:44:35;100770.84;;;12.47;100.00
33189;BME280;52601;53.070;10.600;2022-10-16T02:47:20;100776.63;;;12.38;100.00
33189;BME280;52601;53.070;10.600;2022-10-16T02:50:06;100773.00;;;12.40;100.00
33189;BME280;52601;53.070;10.600;2022-10-16T02:52:51;100768.16;;;12.33;100.00
33189;BME280;52601;53.070;10.600;2022-10-16T02:55:37;100772.47;;;12.49;100.00
33189;BME280;52601;53.070;10.600;2022-10-16T02:58:22;100783.59;;;12.39;100.00
33189;BME280;52601;53.070;10.600;2022-10-16T03:01:08;100791.72;;;12.34;100.00
33189;BME280;52601;53.070;10.600;2022-10-16T03:03:53;100786.88;;;12.27;100.00
33189;BME280;52601;53.070;10.600;2022-10-16T03:06:39;100801.56;;;12.31;100.00
33189;BME280;52601;53.070;10.600;2022-10-16T03:09:24;100790.19;;;12.30;100.00
33189;BME280;52601;53.070;10.600;2022-10-16T03:12:10;100787.56;;;12.30;100.00
33189;BME280;52601;53.070;10.600;2022-10-16T03:14:57;100783.50;;;12.25;100.00
33189;BME280;52601;53.070;10.600;2022-10-16T03:17:42;100789.09;;;12.34;100.00
33189;BME280;52601;53.070;10.600;2022-10-16T03:20:28;100776.19;;;12.30;100.00
33189;BME280;52601;53.070;10.600;2022-10-16T03:23:14;100779.78;;;12.29;100.00
33189;BME280;52601;53.070;10.600;2022-10-16T03:25:59;100787.31;;;12.35;100.00
33189;BME280;52601;53.070;10.600;2022-10-16T03:28:45;100781.53;;;12.28;100.00
33189;BME280;52601;53.070;10.600;2022-10-16T03:31:30;100787.22;;;12.21;100.00
33189;BME280;52601;53.070;10.600;2022-10-16T03:34:16;100780.78;;;12.26;100.00
33189;BME280;52601;53.070;10.600;2022-10-16T03:37:01;100785.25;;;12.24;100.00
33189;BME280;52601;53.070;10.600;2022-10-16T03:39:47;100783.06;;;12.17;100.00
33189;BME280;52601;53.070;10.600;2022-10-16T03:42:32;100794.78;;;12.27;100.00
33189;BME280;52601;53.070;10.600;2022-10-16T03:45:17;100796.03;;;12.20;100.00
33189;BME280;52601;53.070;10.600;2022-10-16T03:48:03;100787.53;;;12.15;100.00
33189;BME280;52601;53.070;10.600;2022-10-16T03:50:48;100789.13;;;12.17;100.00
33189;BME280;52601;53.070;10.600;2022-10-16T03:53:35;100776.94;;;12.16;100.00
33189;BME280;52601;53.070;10.600;2022-10-16T03:56:20;100776.09;;;12.16;100.00
33189;BME280;52601;53.070;10.600;2022-10-16T03:59:06;100775.50;;;12.10;100.00
33189;BME280;52601;53.070;10.600;2022-10-16T04:01:51;100769.28;;;12.11;100.00
33189;BME280;52601;53.070;10.600;2022-10-16T04:04:37;100770.38;;;12.07;100.00
33189;BME280;52601;53.070;10.600;2022-10-16T04:07:22;100762.94;;;12.16;100.00
33189;BME280;52601;53.070;10.600;2022-10-16T04:10:08;100779.03;;;12.09;100.00
33189;BME280;52601;53.070;10.600;2022-10-16T04:12:54;100771.06;;;12.11;100.00
33189;BME280;52601;53.070;10.600;2022-10-16T04:15:41;100777.50;;;12.05;100.00
33189;BME280;52601;53.070;10.600;2022-10-16T04:18:26;100782.63;;;12.08;100.00
33189;BME280;52601;53.070;10.600;2022-10-16T04:21:12;100787.25;;;12.03;100.00
33189;BME280;52601;53.070;10.600;2022-10-16T04:23:58;100784.91;;;12.15;100.00
33189;BME280;52601;53.070;10.600;2022-10-16T04:26:43;100791.22;;;11.95;100.00
33189;BME280;52601;53.070;10.600;2022-10-16T04:29:28;100797.06;;;12.00;100.00
33189;BME280;52601;53.070;10.600;2022-10-16T04:32:14;100805.91;;;11.99;100.00
33189;BME280;52601;53.070;10.600;2022-10-16T04:34:59;100796.41;;;11.79;100.00
33189;BME280;52601;53.070;10.600;2022-10-16T04:37:45;100826.72;;;11.86;100.00
33189;BME280;52601;53.070;10.600;2022-10-16T04:40:31;100821.38;;;11.88;100.00
33189;BME280;52601;53.070;10.600;2022-10-16T04:43:21;100823.00;;;11.90;100.00
33189;BME280;52601;53.070;10.600;2022-10-16T04:46:07;100827.63;;;11.85;100.00
33189;BME280;52601;53.070;10.600;2022-10-16T04:48:53;100833.13;;;11.81;100.00
33189;BME280;52601;53.070;10.600;2022-10-16T04:51:39;100834.59;;;11.86;100.00
33189;BME280;52601;53.070;10.600;2022-10-16T04:54:24;100844.09;;;11.89;100.00
33189;BME280;52601;53.070;10.600;2022-10-16T04:57:10;100837.13;;;11.88;100.00
33189;BME280;52601;53.070;10.600;2022-10-16T04:59:56;100830.09;;;11.88;100.00
33189;BME280;52601;53.070;10.600;2022-10-16T05:02:41;100836.91;;;11.92;100.00
33189;BME280;52601;53.070;10.600;2022-10-16T05:05:27;100830.25;;;11.85;100.00
33189;BME280;52601;53.070;10.600;2022-10-16T05:08:14;100830.03;;;11.90;100.00
33189;BME280;52601;53.070;10.600;2022-10-16T05:11:00;100846.19;;;11.82;100.00
33189;BME280;52601;53.070;10.600;2022-10-16T05:13:46;100832.59;;;11.74;100.00
33189;BME280;52601;53.070;10.600;2022-10-16T05:16:36;100847.28;;;11.78;100.00
33189;BME280;52601;53.070;10.600;2022-10-16T05:19:21;100835.63;;;11.65;100.00
33189;BME280;52601;53.070;10.600;2022-10-16T05:22:12;100847.16;;;11.63;100.00
33189;BME280;52601;53.070;10.600;2022-10-16T05:24:57;100851.56;;;11.62;100.00
33189;BME280;52601;53.070;10.600;2022-10-16T05:27:43;100857.31;;;11.70;100.00
33189;BME280;52601;53.070;10.600;2022-10-16T05:30:28;100857.44;;;11.67;100.00
33189;BME280;52601;53.070;10.600;2022-10-16T05:33:14;100840.97;;;11.64;100.00
33189;BME280;52601;53.070;10.600;2022-10-16T05:36:04;100850.50;;;11.66;100.00
33189;BME280;52601;53.070;10.600;2022-10-16T05:38:50;100870.84;;;11.61;100.00
33189;BME280;52601;53.070;10.600;2022-10-16T05:41:36;100892.03;;;11.77;100.00
33189;BME280;52601;53.070;10.600;2022-10-16T05:44:21;100879.66;;;11.79;100.00
33189;BME280;52601;53.070;10.600;2022-10-16T05:47:07;100869.06;;;11.80;100.00
33189;BME280;52601;53.070;10.600;2022-10-16T05:49:52;100860.53;;;11.75;100.00
33189;BME280;52601;53.070;10.600;2022-10-16T05:52:38;100884.19;;;11.75;100.00
33189;BME280;52601;53.070;10.600;2022-10-16T05:55:23;100890.38;;;11.91;100.00
33189;BME280;52601;53.070;10.600;2022-10-16T05:58:09;100899.34;;;11.87;100.00
33189;BME280;52601;53.070;10.600;2022-10-16T06:00:56;100887.38;;;11.82;100.00
33189;BME280;52601;53.070;10.600;2022-10-16T06:03:42;100899.97;;;11.92;100.00
33189;BME280;52601;53.070;10.600;2022-10-16T06:06:28;100888.97;;;12.01;100.00
33189;BME280;52601;53.070;10.600;2022-10-16T06:09:13;100880.63;;;11.93;100.00
33189;BME280;52601;53.070;10.600;2022-10-16T06:11:59;100898.25;;;12.08;100.00
33189;BME280;52601;53.070;10.600;2022-10-16T06:14:46;100894.59;;;12.11;100.00
33189;BME280;52601;53.070;10.600;2022-10-16T06:17:34;100895.59;;;12.26;100.00
33189;BME280;52601;53.070;10.600;2022-10-16T06:20:19;100895.91;;;12.20;100.00
33189;BME280;52601;53.070;10.600;2022-10-16T06:23:05;100907.44;;;12.34;100.00
33189;BME280;52601;53.070;10.600;2022-10-16T06:25:50;100906.66;;;12.32;100.00
33189;BME280;52601;53.070;10.600;2022-10-16T06:28:36;100912.50;;;12.37;100.00
33189;BME280;52601;53.070;10.600;2022-10-16T06:31:22;100913.66;;;12.49;100.00
33189;BME280;52601;53.070;10.600;2022-10-16T06:34:10;100889.59;;;12.56;100.00
33189;BME280;52601;53.070;10.600;2022-10-16T06:36:56;100906.22;;;13.05;100.00
33189;BME280;52601;53.070;10.600;2022-10-16T06:39:41;100897.06;;;13.12;100.00
33189;BME280;52601;53.070;10.600;2022-10-16T06:42:27;100891.06;;;13.55;100.00
33189;BME280;52601;53.070;10.600;2022-10-16T06:45:13;100908.66;;;13.84;100.00
33189;BME280;52601;53.070;10.600;2022-10-16T06:47:59;100914.69;;;13.87;100.00
33189;BME280;52601;53.070;10.600;2022-10-16T06:50:57;100922.09;;;13.80;100.00
33189;BME280;52601;53.070;10.600;2022-10-16T06:53:45;100920.41;;;13.79;100.00
33189;BME280;52601;53.070;10.600;2022-10-16T06:56:48;100928.81;;;13.86;100.00
33189;BME280;52601;53.070;10.600;2022-10-16T06:59:34;100923.56;;;13.86;100.00
33189;BME280;52601;53.070;10.600;2022-10-16T07:02:19;100932.97;;;13.90;100.00
33189;BME280;52601;53.070;10.600;2022-10-16T07:05:05;100934.75;;;13.89;100.00
33189;BME280;52601;53.070;10.600;2022-10-16T07:07:51;100929.94;;;13.81;100.00
33189;BME280;52601;53.070;10.600;2022-10-16T07:10:36;100936.53;;;13.89;100.00
33189;BME280;52601;53.070;10.600;2022-10-16T07:13:22;100938.19;;;13.75;100.00
33189;BME280;52601;53.070;10.600;2022-10-16T07:16:10;100943.94;;;13.82;100.00
33189;BME280;52601;53.070;10.600;2022-10-16T07:18:57;100955.59;;;13.94;100.00
33189;BME280;52601;53.070;10.600;2022-10-16T07:21:45;100952.19;;;13.92;100.00
33189;BME280;52601;53.070;10.600;2022-10-16T07:24:30;100942.22;;;13.97;100.00
33189;BME280;52601;53.070;10.600;2022-10-16T07:27:16;100962.34;;;14.13;100.00
33189;BME280;52601;53.070;10.600;2022-10-16T07:30:02;100962.78;;;14.06;100.00
33189;BME280;52601;53.070;10.600;2022-10-16T07:32:53;100966.84;;;14.11;100.00
33189;BME280;52601;53.070;10.600;2022-10-16T07:35:47;100964.69;;;14.33;100.00
33189;BME280;52601;53.070;10.600;2022-10-16T07:38:33;100967.44;;;14.60;100.00
33189;BME280;52601;53.070;10.600;2022-10-16T07:41:19;100969.97;;;15.18;100.00
33189;BME280;52601;53.070;10.600;2022-10-16T07:44:05;100965.72;;;16.49;100.00
33189;BME280;52601;53.070;10.600;2022-10-16T07:46:51;100970.88;;;18.20;91.50
33189;BME280;52601;53.070;10.600;2022-10-16T07:49:36;100975.75;;;18.83;84.39
33189;BME280;52601;53.070;10.600;2022-10-16T07:52:22;100987.63;;;19.34;82.02
33189;BME280;52601;53.070;10.600;2022-10-16T07:55:08;100979.00;;;19.20;81.38
33189;BME280;52601;53.070;10.600;2022-10-16T07:57:54;100996.91;;;18.84;82.13
33189;BME280;52601;53.070;10.600;2022-10-16T08:00:40;100988.06;;;17.80;87.61
33189;BME280;52601;53.070;10.600;2022-10-16T08:03:25;100996.50;;;17.38;89.56
33189;BME280;52601;53.070;10.600;2022-10-16T08:06:11;100992.50;;;16.94;92.03
33189;BME280;52601;53.070;10.600;2022-10-16T08:08:56;101003.31;;;16.79;94.31
33189;BME280;52601;53.070;10.600;2022-10-16T08:11:42;101003.84;;;16.59;96.17
33189;BME280;52601;53.070;10.600;2022-10-16T08:14:27;100997.81;;;16.57;96.59
33189;BME280;52601;53.070;10.600;2022-10-16T08:17:14;101013.53;;;16.72;97.64
33189;BME280;52601;53.070;10.600;2022-10-16T08:19:59;101003.47;;;17.39;94.66
33189;BME280;52601;53.070;10.600;2022-10-16T08:22:45;101017.06;;;19.09;87.53
33189;BME280;52601;53.070;10.600;2022-10-16T08:25:30;101016.72;;;21.15;75.33
33189;BME280;52601;53.070;10.600;2022-10-16T08:28:15;101017.00;;;23.68;64.62
33189;BME280;52601;53.070;10.600;2022-10-16T08:31:15;101008.59;;;24.08;61.47
33189;BME280;52601;53.070;10.600;2022-10-16T08:34:01;101016.41;;;25.89;57.66
33189;BME280;52601;53.070;10.600;2022-10-16T08:36:47;101027.63;;;26.75;54.24
33189;BME280;52601;53.070;10.600;2022-10-16T08:39:33;101022.38;;;26.33;54.62
33189;BME280;52601;53.070;10.600;2022-10-16T08:42:33;101024.78;;;25.70;56.06
33189;BME280;52601;53.070;10.600;2022-10-16T08:45:39;101045.94;;;26.55;55.40
33189;BME280;52601;53.070;10.600;2022-10-16T08:48:38;101038.75;;;27.43;53.38
33189;BME280;52601;53.070;10.600;2022-10-16T08:51:33;101040.81;;;27.71;52.37
33189;BME280;52601;53.070;10.600;2022-10-16T08:54:41;101030.66;;;28.12;52.39
33189;BME280;52601;53.070;10.600;2022-10-16T08:57:27;101043.72;;;28.46;49.97
33189;BME280;52601;53.070;10.600;2022-10-16T09:00:13;101049.06;;;27.23;51.95
33189;BME280;52601;53.070;10.600;2022-10-16T09:06:17;101042.13;;;28.37;50.31
33189;BME280;52601;53.070;10.600;2022-10-16T09:24:11;101055.50;;;28.75;49.32
33189;BME280;52601;53.070;10.600;2022-10-16T09:26:57;101050.16;;;29.48;46.02
33189;BME280;52601;53.070;10.600;2022-10-16T09:29:42;101062.00;;;29.47;46.80
33189;BME280;52601;53.070;10.600;2022-10-16T09:32:28;101057.06;;;30.37;46.71
33189;BME280;52601;53.070;10.600;2022-10-16T09:35:17;101048.88;;;31.34;44.63
33189;BME280;52601;53.070;10.600;2022-10-16T09:38:03;101045.72;;;30.90;45.09
33189;BME280;52601;53.070;10.600;2022-10-16T09:40:49;101044.97;;;30.82;44.33
33189;BME280;52601;53.070;10.600;2022-10-16T09:43:52;101060.13;;;28.81;47.01
33189;BME280;52601;53.070;10.600;2022-10-16T09:46:39;101056.41;;;29.20;48.52
33189;BME280;52601;53.070;10.600;2022-10-16T09:49:26;101058.13;;;28.98;46.35
33189;BME280;52601;53.070;10.600;2022-10-16T09:52:14;101058.75;;;26.85;48.88
33189;BME280;52601;53.070;10.600;2022-10-16T09:55:02;101065.47;;;28.30;50.65
33189;BME280;52601;53.070;10.600;2022-10-16T09:57:54;101083.91;;;26.12;52.73
33189;BME280;52601;53.070;10.600;2022-10-16T10:00:41;101071.34;;;28.33;50.24
33189;BME280;52601;53.070;10.600;2022-10-16T10:03:40;101070.03;;;27.90;48.42
33189;BME280;52601;53.070;10.600;2022-10-16T10:06:32;101062.50;;;30.58;46.17
33189;BME280;52601;53.070;10.600;2022-10-16T10:09:24;101063.13;;;31.09;43.09
33189;BME280;52601;53.070;10.600;2022-10-16T10:12:21;101071.78;;;31.53;43.40
33189;BME280;52601;53.070;10.600;2022-10-16T10:15:12;101076.34;;;33.83;38.53
33189;BME280;52601;53.070;10.600;2022-10-16T10:17:58;101067.03;;;32.22;40.36
33189;BME280;52601;53.070;10.600;2022-10-16T10:20:45;101072.34;;;32.69;41.64
33189;BME280;52601;53.070;10.600;2022-10-16T10:23:30;101073.41;;;31.48;40.70
33189;BME280;52601;53.070;10.600;2022-10-16T10:26:21;101078.72;;;31.34;41.84
33189;BME280;52601;53.070;10.600;2022-10-16T10:29:20;101093.84;;;34.07;38.37
33189;BME280;52601;53.070;10.600;2022-10-16T10:35:22;101077.66;;;32.10;38.49
33189;BME280;52601;53.070;10.600;2022-10-16T10:41:44;101094.31;;;33.20;38.73
33189;BME280;52601;53.070;10.600;2022-10-16T10:44:55;101088.47;;;31.57;39.10
33189;BME280;52601;53.070;10.600;2022-10-16T10:48:18;101088.75;;;32.15;38.72
33189;BME280;52601;53.070;10.600;2022-10-16T10:51:23;101101.22;;;29.14;43.42
33189;BME280;52601;53.070;10.600;2022-10-16T10:54:32;101099.75;;;29.55;42.19
33189;BME280;52601;53.070;10.600;2022-10-16T11:01:09;101101.25;;;30.37;41.75
33189;BME280;52601;53.070;10.600;2022-10-16T11:07:02;101116.53;;;29.65;41.76
33189;BME280;52601;53.070;10.600;2022-10-16T11:09:56;101100.69;;;28.96;43.93
33189;BME280;52601;53.070;10.600;2022-10-16T11:12:47;101105.88;;;32.16;39.86
33189;BME280;52601;53.070;10.600;2022-10-16T11:15:37;101096.72;;;33.67;37.46
33189;BME280;52601;53.070;10.600;2022-10-16T11:18:32;101105.53;;;32.39;38.44
33189;BME280;52601;53.070;10.600;2022-10-16T11:21:19;101097.63;;;32.50;37.53
33189;BME280;52601;53.070;10.600;2022-10-16T11:24:19;101095.78;;;31.97;38.37
33189;BME280;52601;53.070;10.600;2022-10-16T11:27:09;101095.34;;;32.80;36.52
33189;BME280;52601;53.070;10.600;2022-10-16T11:29:59;101097.66;;;32.96;36.61
33189;BME280;52601;53.070;10.600;2022-10-16T11:41:56;101115.03;;;31.06;40.70
33189;BME280;52601;53.070;10.600;2022-10-16T11:44:59;101140.16;;;32.30;39.84
33189;BME280;52601;53.070;10.600;2022-10-16T11:48:07;101141.28;;;30.63;41.36
33189;BME280;52601;53.070;10.600;2022-10-16T11:51:03;101132.09;;;31.00;39.87
33189;BME280;52601;53.070;10.600;2022-10-16T11:54:14;101129.72;;;27.24;44.50
33189;BME280;52601;53.070;10.600;2022-10-16T11:57:10;101134.94;;;24.93;50.02
33189;BME280;52601;53.070;10.600;2022-10-16T12:00:04;101148.66;;;24.90;51.56
33189;BME280;52601;53.070;10.600;2022-10-16T12:08:51;101154.91;;;23.08;56.87
33189;BME280;52601;53.070;10.600;2022-10-16T12:11:38;101165.03;;;22.95;57.93
33189;BME280;52601;53.070;10.600;2022-10-16T12:17:25;101159.97;;;26.54;49.73
33189;BME280;52601;53.070;10.600;2022-10-16T12:23:00;101153.06;;;30.20;42.06
33189;BME280;52601;53.070;10.600;2022-10-16T12:25:54;101146.97;;;31.38;40.84
33189;BME280;52601;53.070;10.600;2022-10-16T12:28:40;101155.03;;;30.40;42.33
33189;BME280;52601;53.070;10.600;2022-10-16T12:31:37;101156.66;;;32.15;39.29
33189;BME280;52601;53.070;10.600;2022-10-16T12:34:43;101151.28;;;32.35;40.67
33189;BME280;52601;53.070;10.600;2022-10-16T12:37:34;101152.88;;;33.55;36.11
33189;BME280;52601;53.070;10.600;2022-10-16T12:40:30;101150.97;;;31.42;38.77
33189;BME280;52601;53.070;10.600;2022-10-16T12:43:35;101181.72;;;31.49;38.88
33189;BME280;52601;53.070;10.600;2022-10-16T12:46:34;101161.38;;;32.54;37.27
33189;BME280;52601;53.070;10.600;2022-10-16T12:52:36;101176.88;;;31.45;39.21
33189;BME280;52601;53.070;10.600;2022-10-16T12:55:23;101153.09;;;32.21;38.35
33189;BME280;52601;53.070;10.600;2022-10-16T12:58:19;101155.81;;;33.21;37.73
33189;BME280;52601;53.070;10.600;2022-10-16T13:01:18;101163.00;;;31.33;38.28
33189;BME280;52601;53.070;10.600;2022-10-16T13:04:29;101164.34;;;31.44;39.79
33189;BME280;52601;53.070;10.600;2022-10-16T13:07:33;101177.59;;;31.32;39.41
33189;BME280;52601;53.070;10.600;2022-10-16T13:10:58;101190.69;;;28.97;42.18
33189;BME280;52601;53.070;10.600;2022-10-16T13:16:58;101201.25;;;26.79;47.91
33189;BME280;52601;53.070;10.600;2022-10-16T13:20:19;101191.16;;;28.16;46.25
33189;BME280;52601;53.070;10.600;2022-10-16T13:29:02;101202.28;;;31.16;39.76
33189;BME280;52601;53.070;10.600;2022-10-16T13:31:49;101210.13;;;30.18;41.16
33189;BME280;52601;53.070;10.600;2022-10-16T13:34:44;101204.56;;;30.77;40.38
33189;BME280;52601;53.070;10.600;2022-10-16T13:37:31;101207.44;;;31.32;40.10
33189;BME280;52601;53.070;10.600;2022-10-16T13:40:20;101213.56;;;30.41;40.01
33189;BME280;52601;53.070;10.600;2022-10-16T13:43:08;101205.94;;;29.12;41.47
33189;BME280;52601;53.070;10.600;2022-10-16T13:46:04;101208.78;;;31.21;39.63
33189;BME280;52601;53.070;10.600;2022-10-16T13:49:00;101217.44;;;31.87;38.95
33189;BME280;52601;53.070;10.600;2022-10-16T13:51:58;101215.09;;;30.50;41.08
33189;BME280;52601;53.070;10.600;2022-10-16T13:54:44;101232.22;;;30.87;40.98
33189;BME280;52601;53.070;10.600;2022-10-16T13:57:30;101239.53;;;30.36;40.07
33189;BME280;52601;53.070;10.600;2022-10-16T14:00:22;101238.56;;;26.66;47.21
33189;BME280;52601;53.070;10.600;2022-10-16T14:03:13;101230.34;;;24.88;51.71
33189;BME280;52601;53.070;10.600;2022-10-16T14:06:02;101221.63;;;24.04;53.39
33189;BME280;52601;53.070;10.600;2022-10-16T14:08:54;101235.31;;;24.38;53.63
33189;BME280;52601;53.070;10.600;2022-10-16T14:11:53;101248.69;;;24.65;52.55
33189;BME280;52601;53.070;10.600;2022-10-16T14:14:42;101250.47;;;26.55;49.94
33189;BME280;52601;53.070;10.600;2022-10-16T14:17:31;101252.34;;;25.09;53.42
33189;BME280;52601;53.070;10.600;2022-10-16T14:20:18;101257.22;;;25.66;50.92
33189;BME280;52601;53.070;10.600;2022-10-16T14:29:15;101253.34;;;27.60;44.98
33189;BME280;52601;53.070;10.600;2022-10-16T14:32:20;101254.78;;;27.86;45.41
33189;BME280;52601;53.070;10.600;2022-10-16T14:35:26;101254.03;;;27.46;45.95
33189;BME280;52601;53.070;10.600;2022-10-16T14:38:18;101272.31;;;28.06;45.11
33189;BME280;52601;53.070;10.600;2022-10-16T14:41:05;101282.31;;;26.00;48.35
33189;BME280;52601;53.070;10.600;2022-10-16T14:43:54;101303.72;;;24.69;50.32
33189;BME280;52601;53.070;10.600;2022-10-16T14:46:41;101300.53;;;22.57;55.91
33189;BME280;52601;53.070;10.600;2022-10-16T14:49:27;101301.69;;;22.03;58.33
33189;BME280;52601;53.070;10.600;2022-10-16T14:52:13;101289.94;;;22.15;58.25
33189;BME280;52601;53.070;10.600;2022-10-16T14:54:59;101298.00;;;21.95;60.03
33189;BME280;52601;53.070;10.600;2022-10-16T14:57:45;101291.63;;;22.07;58.40
33189;BME280;52601;53.070;10.600;2022-10-16T15:00:31;101300.22;;;21.69;59.01
33189;BME280;52601;53.070;10.600;2022-10-16T15:03:17;101317.31;;;21.14;60.85
33189;BME280;52601;53.070;10.600;2022-10-16T15:06:02;101309.31;;;21.14;61.20
33189;BME280;52601;53.070;10.600;2022-10-16T15:08:47;101318.41;;;21.12;60.32
33189;BME280;52601;53.070;10.600;2022-10-16T15:11:33;101329.00;;;20.80;60.58
33189;BME280;52601;53.070;10.600;2022-10-16T15:14:19;101324.28;;;20.84;61.70
33189;BME280;52601;53.070;10.600;2022-10-16T15:17:04;101322.63;;;20.38;63.40
33189;BME280;52601;53.070;10.600;2022-10-16T15:19:50;101323.56;;;20.04;64.06
33189;BME280;52601;53.070;10.600;2022-10-16T15:22:36;101332.38;;;20.05;65.03
33189;BME280;52601;53.070;10.600;2022-10-16T15:28:19;101339.56;;;19.69;67.34
33189;BME280;52601;53.070;10.600;2022-10-16T15:31:05;101344.88;;;19.35;68.28
33189;BME280;52601;53.070;10.600;2022-10-16T15:33:52;101338.16;;;19.29;70.42
33189;BME280;52601;53.070;10.600;2022-10-16T15:36:39;101323.69;;;19.10;69.29
33189;BME280;52601;53.070;10.600;2022-10-16T15:39:25;101342.75;;;19.04;69.95
33189;BME280;52601;53.070;10.600;2022-10-16T15:42:11;101336.34;;;18.82;70.47
33189;BME280;52601;53.070;10.600;2022-10-16T15:44:56;101342.44;;;18.72;71.04
33189;BME280;52601;53.070;10.600;2022-10-16T15:47:42;101357.75;;;18.68;73.57
33189;BME280;52601;53.070;10.600;2022-10-16T15:50:31;101346.25;;;18.80;71.77
33189;BME280;52601;53.070;10.600;2022-10-16T15:53:16;101355.22;;;18.67;72.78
33189;BME280;52601;53.070;10.600;2022-10-16T15:56:06;101370.22;;;18.43;74.56
33189;BME280;52601;53.070;10.600;2022-10-16T15:58:52;101367.13;;;18.11;77.67